createdAt,value
2019-02-25T00:02:28.226Z,102639.77
2019-02-25T00:04:55.310Z,102636.19
2019-02-25T00:07:32.380Z,102639.19
2019-02-25T00:09:59.588Z,102638.26
2019-02-25T00:12:35.001Z,102634.73
2019-02-25T00:15:02.271Z,102629.86
2019-02-25T00:17:32.251Z,102624.99
2019-02-25T00:19:59.934Z,102624.93
2019-02-25T00:22:27.330Z,102617.85
2019-02-25T00:24:54.496Z,102616.95
2019-02-25T00:27:23.942Z,102615.16
2019-02-25T00:29:59.381Z,102611.63
2019-02-25T00:32:26.434Z,102609.39
2019-02-25T00:34:53.496Z,102614.19
2019-02-25T00:37:20.558Z,102619.00
2019-02-25T00:39:47.613Z,102619.87
2019-02-25T00:42:14.668Z,102620.32
2019-02-25T00:44:41.725Z,102614.19
2019-02-25T00:47:08.799Z,102609.82
2019-02-25T00:49:35.864Z,102598.88
2019-02-25T00:52:03.067Z,102613.46
2019-02-25T00:54:30.103Z,102612.73
2019-02-25T00:56:57.174Z,102613.75
2019-02-25T00:59:24.269Z,102621.33
2019-02-25T01:01:51.365Z,102621.83
2019-02-25T01:04:18.483Z,102617.89
2019-02-25T01:06:45.545Z,102617.44
2019-02-25T01:09:12.596Z,102610.75
2019-02-25T01:11:39.673Z,102613.24
2019-02-25T01:14:06.735Z,102615.78
2019-02-25T01:16:33.795Z,102614.42
2019-02-25T01:19:00.856Z,102606.09
2019-02-25T01:21:27.935Z,102605.22
2019-02-25T01:23:55.002Z,102606.03
2019-02-25T01:26:22.066Z,102603.41
2019-02-25T01:28:49.130Z,102591.66
2019-02-25T01:31:16.199Z,102592.65
2019-02-25T01:33:43.270Z,102580.92
2019-02-25T01:36:10.348Z,102577.53
2019-02-25T01:38:37.407Z,102557.41
2019-02-25T01:41:04.522Z,102571.48
2019-02-25T01:43:31.574Z,102568.91
2019-02-25T01:45:58.651Z,102558.84
2019-02-25T01:48:25.712Z,102566.23
2019-02-25T01:50:52.767Z,102564.48
2019-02-25T01:53:19.828Z,102564.92
2019-02-25T01:55:46.893Z,102559.66
2019-02-25T01:58:13.952Z,102555.23
2019-02-25T02:00:41.003Z,102558.28
2019-02-25T02:03:09.199Z,102552.97
2019-02-25T02:05:36.258Z,102553.77
2019-02-25T02:08:03.320Z,102555.95
2019-02-25T02:10:30.402Z,102561.08
2019-02-25T02:12:57.462Z,102565.84
2019-02-25T02:15:24.511Z,102560.09
2019-02-25T02:17:51.580Z,102555.19
2019-02-25T02:20:18.660Z,102568.68
2019-02-25T02:22:45.739Z,102570.76
2019-02-25T02:25:13.017Z,102563.73
2019-02-25T02:27:40.085Z,102563.23
2019-02-25T02:30:10.222Z,102558.73
2019-02-25T02:32:37.291Z,102567.84
2019-02-25T02:35:04.530Z,102567.83
2019-02-25T02:37:31.619Z,102556.39
2019-02-25T02:39:58.700Z,102562.02
2019-02-25T02:42:25.779Z,102563.27
2019-02-25T02:45:22.538Z,102555.80
2019-02-25T02:48:01.980Z,102568.48
2019-02-25T02:50:29.090Z,102569.35
2019-02-25T02:52:56.140Z,102567.98
2019-02-25T02:55:23.199Z,102568.78
2019-02-25T02:57:50.281Z,102568.72
2019-02-25T03:00:19.179Z,102565.14
2019-02-25T03:02:46.281Z,102564.27
2019-02-25T03:05:14.915Z,102563.81
2019-02-25T03:07:41.981Z,102555.45
2019-02-25T03:10:10.249Z,102572.06
2019-02-25T03:12:37.305Z,102570.75
2019-02-25T03:15:06.248Z,102568.10
2019-02-25T03:17:34.197Z,102558.01
2019-02-25T03:20:01.281Z,102563.73
2019-02-25T03:22:28.427Z,102552.36
2019-02-25T03:24:55.525Z,102544.52
2019-02-25T03:27:22.586Z,102544.06
2019-02-25T03:29:49.653Z,102551.45
2019-02-25T03:32:16.733Z,102552.31
2019-02-25T03:34:43.814Z,102551.94
2019-02-25T03:37:10.872Z,102557.20
2019-02-25T03:39:37.975Z,102566.07
2019-02-25T03:42:05.042Z,102572.27
2019-02-25T03:44:32.113Z,102568.41
2019-02-25T03:46:59.180Z,102564.92
2019-02-25T03:49:26.257Z,102546.13
2019-02-25T03:51:53.320Z,102541.38
2019-02-25T03:54:20.375Z,102537.50
2019-02-25T03:56:47.438Z,102531.91
2019-02-25T03:59:14.499Z,102539.53
2019-02-25T04:01:41.556Z,102550.54
2019-02-25T04:04:08.931Z,102543.62
2019-02-25T04:06:35.999Z,102555.50
2019-02-25T04:09:04.505Z,102555.14
2019-02-25T04:11:31.562Z,102554.34
2019-02-25T04:13:58.626Z,102560.56
2019-02-25T04:16:25.687Z,102572.83
2019-02-25T04:18:52.770Z,102567.58
2019-02-25T04:21:19.884Z,102549.64
2019-02-25T04:23:46.960Z,102545.75
2019-02-25T04:26:14.024Z,102546.70
2019-02-25T04:28:41.096Z,102553.72
2019-02-25T04:31:08.169Z,102562.55
2019-02-25T04:33:35.246Z,102560.39
2019-02-25T04:36:02.316Z,102570.47
2019-02-25T04:38:29.396Z,102560.39
2019-02-25T04:40:56.457Z,102563.02
2019-02-25T04:43:23.519Z,102560.78
2019-02-25T04:45:50.592Z,102556.78
2019-02-25T04:48:17.668Z,102558.02
2019-02-25T04:50:44.764Z,102564.52
2019-02-25T04:53:11.827Z,102557.45
2019-02-25T04:55:38.897Z,102573.14
2019-02-25T04:58:05.955Z,102570.08
2019-02-25T05:00:33.033Z,102566.52
2019-02-25T05:03:00.335Z,102564.80
2019-02-25T05:05:27.398Z,102570.44
2019-02-25T05:07:54.476Z,102564.25
2019-02-25T05:10:21.544Z,102554.55
2019-02-25T05:12:54.234Z,102552.72
2019-02-25T05:15:24.051Z,102547.41
2019-02-25T05:17:51.147Z,102548.65
2019-02-25T05:20:18.214Z,102551.64
2019-02-25T05:22:45.279Z,102545.89
2019-02-25T05:25:12.360Z,102552.00
2019-02-25T05:27:39.414Z,102544.06
2019-02-25T05:30:08.607Z,102543.11
2019-02-25T05:32:35.896Z,102547.78
2019-02-25T05:35:03.259Z,102553.33
2019-02-25T05:37:30.339Z,102545.83
2019-02-25T05:39:57.403Z,102550.55
2019-02-25T05:42:24.463Z,102563.22
2019-02-25T05:44:51.555Z,102556.61
2019-02-25T05:47:18.625Z,102555.75
2019-02-25T05:49:45.702Z,102551.00
2019-02-25T05:52:12.771Z,102549.38
2019-02-25T05:54:39.847Z,102559.95
2019-02-25T05:57:06.909Z,102569.23
2019-02-25T05:59:33.976Z,102552.25
2019-02-25T06:02:01.025Z,102551.87
2019-02-25T06:04:28.093Z,102550.12
2019-02-25T06:06:55.168Z,102555.37
2019-02-25T06:09:22.358Z,102557.13
2019-02-25T06:11:50.568Z,102559.83
2019-02-25T06:14:17.660Z,102575.14
2019-02-25T06:16:44.716Z,102573.83
2019-02-25T06:21:32.008Z,102578.31
2019-02-25T06:23:59.072Z,102560.69
2019-02-25T06:26:26.152Z,102571.11
2019-02-25T06:28:53.217Z,102574.12
2019-02-25T06:31:20.283Z,102573.23
2019-02-25T06:33:47.620Z,102570.59
2019-02-25T06:36:14.827Z,102572.80
2019-02-25T06:38:41.911Z,102564.92
2019-02-25T06:41:08.964Z,102547.84
2019-02-25T06:43:36.025Z,102538.16
2019-02-25T06:46:03.103Z,102523.25
2019-02-25T06:48:30.166Z,102519.31
2019-02-25T06:50:57.223Z,102501.00
2019-02-25T06:53:24.322Z,102487.38
2019-02-25T06:55:51.398Z,102485.69
2019-02-25T06:58:18.477Z,102470.31
2019-02-25T07:00:45.542Z,102468.52
2019-02-25T07:03:12.619Z,102462.39
2019-02-25T07:06:11.362Z,102451.88
2019-02-25T07:08:53.949Z,102458.45
2019-02-25T07:11:43.527Z,102430.09
2019-02-25T07:14:23.172Z,102442.33
2019-02-25T07:17:08.399Z,102425.78
2019-02-25T07:20:07.322Z,102415.73
2019-02-25T07:22:56.855Z,102416.59
2019-02-25T07:25:35.945Z,102407.42
2019-02-25T07:28:36.629Z,102394.36
2019-02-25T07:31:21.031Z,102398.30
2019-02-25T07:34:04.686Z,102386.57
2019-02-25T07:36:49.858Z,102370.06
2019-02-25T07:39:39.437Z,102375.81
2019-02-25T07:42:15.415Z,102374.23
2019-02-25T07:45:08.154Z,102376.88
2019-02-25T07:48:03.796Z,102382.67
2019-02-25T07:50:47.618Z,102378.91
2019-02-25T07:53:33.014Z,102369.90
2019-02-25T07:56:09.651Z,102364.80
2019-02-25T07:59:05.381Z,102375.47
2019-02-25T08:01:56.109Z,102388.76
2019-02-25T08:04:45.512Z,102386.30
2019-02-25T08:07:26.299Z,102373.30
2019-02-25T08:10:18.717Z,102374.32
2019-02-25T08:12:55.773Z,102362.63
2019-02-25T08:15:44.406Z,102361.02
2019-02-25T08:18:22.716Z,102364.69
2019-02-25T08:21:09.347Z,102374.89
2019-02-25T08:23:54.623Z,102375.41
2019-02-25T08:26:50.486Z,102376.37
2019-02-25T08:29:49.204Z,102383.38
2019-02-25T08:32:37.053Z,102384.66
2019-02-25T08:35:30.464Z,102392.08
2019-02-25T08:38:26.943Z,102395.53
2019-02-25T08:41:20.639Z,102413.47
2019-02-25T08:44:07.271Z,102405.58
2019-02-25T08:46:52.794Z,102406.06
2019-02-25T08:49:23.450Z,102420.09
2019-02-25T08:51:50.539Z,102431.48
2019-02-25T08:54:17.717Z,102446.00
2019-02-25T08:56:44.759Z,102442.53
2019-02-25T08:59:11.823Z,102442.62
2019-02-25T09:01:38.887Z,102438.23
2019-02-25T09:04:05.980Z,102458.02
2019-02-25T09:06:33.030Z,102448.88
2019-02-25T09:09:00.089Z,102428.75
2019-02-25T09:11:27.161Z,102431.38
2019-02-25T09:13:54.228Z,102426.56
2019-02-25T09:16:21.297Z,102424.84
2019-02-25T09:18:48.348Z,102428.39
2019-02-25T09:23:54.599Z,102426.71
2019-02-25T09:26:21.667Z,102434.56
2019-02-25T09:28:48.986Z,102439.00
2019-02-25T09:31:16.051Z,102430.73
2019-02-25T09:33:43.140Z,102426.42
2019-02-25T09:36:10.249Z,102421.62
2019-02-25T09:38:37.323Z,102408.50
2019-02-25T09:41:04.399Z,102391.82
2019-02-25T09:43:31.484Z,102386.52
2019-02-25T09:45:58.544Z,102400.19
2019-02-25T09:48:25.608Z,102398.91
2019-02-25T09:50:52.690Z,102407.31
2019-02-25T09:53:19.749Z,102396.87
2019-02-25T09:55:46.806Z,102400.91
2019-02-25T09:58:13.877Z,102394.41
2019-02-25T10:00:40.948Z,102388.75
2019-02-25T10:03:08.010Z,102396.27
2019-02-25T10:05:35.065Z,102398.56
2019-02-25T10:08:02.208Z,102397.69
2019-02-25T10:10:29.272Z,102402.55
2019-02-25T10:12:56.339Z,102417.06
2019-02-25T10:15:23.472Z,102435.59
2019-02-25T10:17:50.532Z,102456.75
2019-02-25T10:20:17.614Z,102443.16
2019-02-25T10:22:44.760Z,102435.67
2019-02-25T10:25:11.960Z,102434.38
2019-02-25T10:27:39.132Z,102427.80
2019-02-25T10:30:07.589Z,102426.97
2019-02-25T10:32:34.655Z,102421.72
2019-02-25T10:35:01.727Z,102427.49
2019-02-25T10:37:28.805Z,102435.47
2019-02-25T10:39:55.879Z,102435.48
2019-02-25T10:42:22.953Z,102445.63
2019-02-25T10:44:50.011Z,102450.03
2019-02-25T10:47:19.144Z,102445.17
2019-02-25T10:49:46.116Z,102427.62
2019-02-25T10:52:14.962Z,102415.28
2019-02-25T10:54:42.159Z,102426.73
2019-02-25T10:57:13.135Z,102439.52
2019-02-25T10:59:59.308Z,102424.15
2019-02-25T11:02:26.369Z,102423.26
2019-02-25T11:04:54.022Z,102413.55
2019-02-25T11:07:22.415Z,102418.86
2019-02-25T11:09:56.827Z,102416.22
2019-02-25T11:12:25.730Z,102419.75
2019-02-25T11:14:52.874Z,102423.69
2019-02-25T11:17:20.873Z,102425.47
2019-02-25T11:19:48.895Z,102427.69
2019-02-25T11:22:16.434Z,102434.73
2019-02-25T11:24:43.643Z,102430.77
2019-02-25T11:27:10.716Z,102432.96
2019-02-25T11:29:39.565Z,102438.23
2019-02-25T11:32:11.727Z,102447.04
2019-02-25T11:34:39.885Z,102440.41
2019-02-25T11:37:07.203Z,102443.95
2019-02-25T11:39:34.972Z,102443.03
2019-02-25T11:42:05.533Z,102431.16
2019-02-25T11:44:32.482Z,102430.70
2019-02-25T11:46:59.559Z,102443.48
2019-02-25T11:49:32.813Z,102428.52
2019-02-25T11:51:59.916Z,102440.84
2019-02-25T11:54:27.086Z,102443.51
2019-02-25T11:56:54.284Z,102444.84
2019-02-25T11:59:21.355Z,102445.31
2019-02-25T12:01:53.691Z,102438.72
2019-02-25T12:04:20.777Z,102436.11
2019-02-25T12:06:56.722Z,102439.16
2019-02-25T12:09:23.811Z,102449.73
2019-02-25T12:11:50.889Z,102433.03
2019-02-25T12:14:19.131Z,102435.66
2019-02-25T12:16:46.184Z,102439.19
2019-02-25T12:19:17.890Z,102445.38
2019-02-25T12:21:42.420Z,102426.91
2019-02-25T12:24:09.496Z,102424.25
2019-02-25T12:26:39.028Z,102424.70
2019-02-25T12:29:10.744Z,102419.86
2019-02-25T12:31:35.098Z,102425.98
2019-02-25T12:34:02.167Z,102423.80
2019-02-25T12:36:29.243Z,102422.94
2019-02-25T12:38:56.303Z,102421.16
2019-02-25T12:41:23.380Z,102416.77
2019-02-25T12:43:50.449Z,102412.78
2019-02-25T12:46:17.515Z,102410.14
2019-02-25T12:48:44.582Z,102400.90
2019-02-25T12:51:11.655Z,102397.39
2019-02-25T12:53:38.715Z,102388.56
2019-02-25T12:56:05.784Z,102406.61
2019-02-25T12:58:32.847Z,102389.02
2019-02-25T13:00:59.915Z,102407.95
2019-02-25T13:03:26.993Z,102397.36
2019-02-25T13:05:54.077Z,102396.95
2019-02-25T13:08:21.131Z,102396.05
2019-02-25T13:10:48.201Z,102380.17
2019-02-25T13:13:15.262Z,102383.27
2019-02-25T13:15:42.339Z,102376.20
2019-02-25T13:18:09.425Z,102365.63
2019-02-25T13:20:36.497Z,102368.72
2019-02-25T13:23:03.647Z,102375.33
2019-02-25T13:25:30.739Z,102392.98
2019-02-25T13:27:58.822Z,102385.05
2019-02-25T13:30:26.572Z,102380.17
2019-02-25T13:32:53.651Z,102380.62
2019-02-25T13:35:20.730Z,102359.47
2019-02-25T13:37:47.795Z,102363.43
2019-02-25T13:40:15.186Z,102371.79
2019-02-25T13:42:42.278Z,102359.45
2019-02-25T13:45:10.545Z,102343.14
2019-02-25T13:47:37.614Z,102333.87
2019-02-25T13:50:05.003Z,102330.80
2019-02-25T13:52:32.073Z,102333.89
2019-02-25T13:54:59.140Z,102342.27
2019-02-25T13:57:26.197Z,102342.25
2019-02-25T13:59:53.317Z,102343.59
2019-02-25T14:02:23.128Z,102352.39
2019-02-25T14:04:50.299Z,102347.09
2019-02-25T14:07:17.612Z,102353.72
2019-02-25T14:09:44.790Z,102360.77
2019-02-25T14:12:12.074Z,102363.88
2019-02-25T14:14:39.142Z,102365.18
2019-02-25T14:17:06.216Z,102358.14
2019-02-25T14:19:33.272Z,102342.28
2019-02-25T14:22:00.443Z,102353.30
2019-02-25T14:24:27.824Z,102347.14
2019-02-25T14:26:54.989Z,102342.71
2019-02-25T14:29:26.196Z,102340.08
2019-02-25T14:31:51.214Z,102340.06
2019-02-25T14:34:18.520Z,102327.73
2019-02-25T14:36:46.480Z,102327.72
2019-02-25T14:39:24.951Z,102318.91
2019-02-25T14:41:48.663Z,102316.28
2019-02-25T14:44:15.730Z,102312.30
2019-02-25T14:46:42.803Z,102323.79
2019-02-25T14:49:09.881Z,102323.34
2019-02-25T14:51:36.955Z,102319.83
2019-02-25T14:54:04.062Z,102316.31
2019-02-25T14:56:31.418Z,102322.03
2019-02-25T14:59:00.633Z,102321.17
2019-02-25T15:01:28.114Z,102323.82
2019-02-25T15:03:58.085Z,102335.28
2019-02-25T15:06:25.853Z,102346.30
2019-02-25T15:08:54.391Z,102339.69
2019-02-25T15:11:21.758Z,102344.52
2019-02-25T15:13:48.844Z,102346.74
2019-02-25T15:16:15.909Z,102352.89
2019-02-25T15:18:42.987Z,102361.70
2019-02-25T15:21:11.307Z,102355.52
2019-02-25T15:23:39.114Z,102360.34
2019-02-25T15:26:07.080Z,102356.39
2019-02-25T15:28:34.448Z,102354.18
2019-02-25T15:31:02.186Z,102354.16
2019-02-25T15:33:31.549Z,102354.16
2019-02-25T15:36:01.336Z,102353.70
2019-02-25T15:38:29.085Z,102354.99
2019-02-25T15:40:58.052Z,102360.27
2019-02-25T15:43:29.936Z,102361.13
2019-02-25T15:45:55.669Z,102357.59
2019-02-25T15:48:22.735Z,102365.03
2019-02-25T15:50:53.045Z,102361.06
2019-02-25T15:53:21.532Z,102351.83
2019-02-25T15:55:48.601Z,102346.51
2019-02-25T15:58:16.357Z,102350.02
2019-02-25T16:00:44.232Z,102347.37
2019-02-25T16:03:13.499Z,102343.39
2019-02-25T16:05:40.275Z,102325.80
2019-02-25T16:08:09.811Z,102339.41
2019-02-25T16:10:36.970Z,102331.89
2019-02-25T16:13:08.363Z,102327.91
2019-02-25T16:15:33.505Z,102323.48
2019-02-25T16:18:02.344Z,102329.61
2019-02-25T16:20:32.233Z,102327.40
2019-02-25T16:23:00.455Z,102320.33
2019-02-25T16:25:29.420Z,102322.06
2019-02-25T16:27:56.731Z,102320.72
2019-02-25T16:30:25.762Z,102315.43
2019-02-25T16:32:52.751Z,102314.99
2019-02-25T16:35:21.036Z,102305.77
2019-02-25T16:37:48.601Z,102298.74
2019-02-25T16:40:17.440Z,102291.69
2019-02-25T16:42:44.910Z,102292.11
2019-02-25T16:45:16.415Z,102289.90
2019-02-25T16:47:43.585Z,102290.31
2019-02-25T16:50:12.543Z,102291.61
2019-02-25T16:52:42.405Z,102287.16
2019-02-25T16:55:10.763Z,102288.91
2019-02-25T16:57:39.201Z,102281.48
2019-02-25T17:00:10.630Z,102287.16
2019-02-25T17:02:38.476Z,102278.38
2019-02-25T17:05:07.063Z,102278.38
2019-02-25T17:07:34.442Z,102277.92
2019-02-25T17:10:03.215Z,102256.83
2019-02-25T17:12:31.714Z,102245.44
2019-02-25T17:14:58.884Z,102237.98
2019-02-25T17:17:25.937Z,102239.80
2019-02-25T17:19:54.102Z,102240.25
2019-02-25T17:22:21.851Z,102250.35
2019-02-25T17:24:52.450Z,102249.04
2019-02-25T17:27:22.496Z,102249.45
2019-02-25T17:29:51.158Z,102246.41
2019-02-25T17:32:19.367Z,102236.31
2019-02-25T17:34:47.610Z,102232.41
2019-02-25T17:37:15.392Z,102230.23
2019-02-25T17:39:44.787Z,102236.81
2019-02-25T17:42:13.311Z,102234.64
2019-02-25T17:44:43.548Z,102234.64
2019-02-25T17:47:11.439Z,102235.52
2019-02-25T17:49:40.580Z,102235.06
2019-02-25T17:52:08.673Z,102223.66
2019-02-25T17:54:39.986Z,102214.02
2019-02-25T17:57:08.052Z,102216.64
2019-02-25T17:59:36.312Z,102215.34
2019-02-25T18:02:04.557Z,102209.63
2019-02-25T18:04:34.615Z,102215.78
2019-02-25T18:07:01.542Z,102209.22
2019-02-25T18:09:28.630Z,102214.95
2019-02-25T18:11:55.761Z,102214.50
2019-02-25T18:14:24.540Z,102210.55
2019-02-25T18:16:51.601Z,102202.20
2019-02-25T18:19:20.848Z,102189.47
2019-02-25T18:21:48.116Z,102184.64
2019-02-25T18:24:15.181Z,102168.41
2019-02-25T18:26:44.477Z,102167.06
2019-02-25T18:29:18.043Z,102170.15
2019-02-25T18:31:45.198Z,102178.08
2019-02-25T18:34:12.990Z,102181.13
2019-02-25T18:36:40.848Z,102190.36
2019-02-25T18:39:13.198Z,102189.93
2019-02-25T18:41:43.088Z,102189.93
2019-02-25T18:44:13.912Z,102187.72
2019-02-25T18:46:43.907Z,102178.93
2019-02-25T18:49:13.329Z,102177.19
2019-02-25T18:51:40.429Z,102165.33
2019-02-25T18:54:09.480Z,102159.63
2019-02-25T18:56:38.125Z,102154.80
2019-02-25T18:59:09.563Z,102156.11
2019-02-25T19:01:34.721Z,102156.09
2019-02-25T19:04:03.586Z,102150.38
2019-02-25T19:06:30.648Z,102151.26
2019-02-25T19:09:00.619Z,102145.98
2019-02-25T19:11:30.705Z,102146.43
2019-02-25T19:14:01.811Z,102151.26
2019-02-25T19:16:29.946Z,102141.16
2019-02-25T19:18:57.010Z,102132.39
2019-02-25T19:21:25.494Z,102134.13
2019-02-25T19:23:53.203Z,102123.14
2019-02-25T19:26:21.906Z,102126.23
2019-02-25T19:28:50.139Z,102125.34
2019-02-25T19:31:21.089Z,102118.75
2019-02-25T19:33:48.157Z,102114.81
2019-02-25T19:36:15.727Z,102117.44
2019-02-25T19:38:44.121Z,102102.50
2019-02-25T19:41:15.127Z,102115.25
2019-02-25T19:43:40.795Z,102115.70
2019-02-25T19:46:08.722Z,102123.17
2019-02-25T19:48:36.927Z,102115.24
2019-02-25T19:51:06.110Z,102111.29
2019-02-25T19:53:35.818Z,102113.94
2019-02-25T19:56:02.181Z,102116.59
2019-02-25T19:58:31.675Z,102116.59
2019-02-25T20:01:01.041Z,102112.63
2019-02-25T20:03:28.939Z,102119.21
2019-02-25T20:05:57.303Z,102113.91
2019-02-25T20:08:24.375Z,102096.79
2019-02-25T20:10:54.307Z,102110.38
2019-02-25T20:13:22.221Z,102116.54
2019-02-25T20:15:51.143Z,102117.83
2019-02-25T20:18:18.886Z,102106.42
2019-02-25T20:20:46.273Z,102105.94
2019-02-25T20:23:13.340Z,102103.30
2019-02-25T20:25:42.418Z,102119.10
2019-02-25T20:28:09.487Z,102119.53
2019-02-25T20:30:36.761Z,102116.89
2019-02-25T20:33:06.258Z,102125.66
2019-02-25T20:35:32.807Z,102126.07
2019-02-25T20:38:00.489Z,102127.35
2019-02-25T20:40:30.527Z,102113.71
2019-02-25T20:42:58.765Z,102117.20
2019-02-25T20:45:27.742Z,102112.34
2019-02-25T20:47:57.217Z,102106.59
2019-02-25T20:50:24.894Z,102113.17
2019-02-25T20:52:51.940Z,102112.30
2019-02-25T20:55:19.042Z,102104.36
2019-02-25T20:57:46.104Z,102109.62
2019-02-25T21:00:15.928Z,102108.26
2019-02-25T21:02:44.254Z,102095.55
2019-02-25T21:05:13.903Z,102095.05
2019-02-25T21:07:40.290Z,102093.28
2019-02-25T21:10:08.791Z,102097.68
2019-02-25T21:12:35.852Z,102089.30
2019-02-25T21:15:03.578Z,102095.42
2019-02-25T21:17:32.785Z,102091.89
2019-02-25T21:20:00.328Z,102090.98
2019-02-25T21:22:29.569Z,102094.03
2019-02-25T21:24:58.110Z,102097.50
2019-02-25T21:27:30.198Z,102081.70
2019-02-25T21:29:57.322Z,102085.15
2019-02-25T21:32:26.325Z,102085.13
2019-02-25T21:34:55.900Z,102075.86
2019-02-25T21:37:29.309Z,102075.41
2019-02-25T21:39:58.213Z,102085.92
2019-02-25T21:42:26.836Z,102088.12
2019-02-25T21:44:56.913Z,102091.63
2019-02-25T21:47:24.637Z,102094.22
2019-02-25T21:49:54.990Z,102106.94
2019-02-25T21:52:23.877Z,102100.36
2019-02-25T21:54:50.953Z,102104.74
2019-02-25T21:57:20.220Z,102110.00
2019-02-25T21:59:47.294Z,102118.73
2019-02-25T22:02:14.361Z,102118.73
2019-02-25T22:04:43.048Z,102120.05
2019-02-25T22:07:10.503Z,102128.34
2019-02-25T22:09:41.333Z,102138.43
2019-02-25T22:12:06.578Z,102133.14
2019-02-25T22:14:35.461Z,102137.52
2019-02-25T22:17:02.583Z,102138.84
2019-02-25T22:19:29.681Z,102132.23
2019-02-25T22:21:58.003Z,102124.75
2019-02-25T22:24:29.092Z,102132.20
2019-02-25T22:26:56.302Z,102126.91
2019-02-25T22:29:23.789Z,102128.26
2019-02-25T22:31:50.906Z,102131.73
2019-02-25T22:34:20.033Z,102121.65
2019-02-25T22:36:48.644Z,102129.91
2019-02-25T22:39:15.974Z,102131.26
2019-02-25T22:41:44.536Z,102128.22
2019-02-25T22:44:12.105Z,102129.09
2019-02-25T22:46:41.252Z,102126.44
2019-02-25T22:49:09.464Z,102117.23
2019-02-25T22:51:37.417Z,102126.44
2019-02-25T22:54:06.160Z,102122.93
2019-02-25T22:56:34.900Z,102122.53
2019-02-25T22:59:02.798Z,102119.46
2019-02-25T23:01:30.961Z,102116.86
2019-02-25T23:03:58.123Z,102119.49
2019-02-25T23:06:25.427Z,102118.64
2019-02-25T23:08:53.437Z,102123.50
2019-02-25T23:11:23.754Z,102119.99
2019-02-25T23:13:52.431Z,102125.25
2019-02-25T23:16:22.169Z,102132.70
2019-02-25T23:18:50.580Z,102129.59
2019-02-25T23:21:23.991Z,102108.54
2019-02-25T23:23:46.661Z,102103.22
2019-02-25T23:26:14.792Z,102118.95
2019-02-25T23:28:42.742Z,102125.97
2019-02-25T23:31:09.832Z,102121.15
2019-02-25T23:33:40.191Z,102134.70
2019-02-25T23:36:05.940Z,102137.73
2019-02-25T23:38:33.067Z,102135.54
2019-02-25T23:41:03.284Z,102136.85
2019-02-25T23:43:31.349Z,102139.52
2019-02-25T23:46:00.070Z,102149.63
2019-02-25T23:48:32.803Z,102141.30
2019-02-25T23:50:57.773Z,102141.73
2019-02-25T23:53:26.613Z,102144.80
2019-02-25T23:55:54.772Z,102145.20
2019-02-25T23:58:24.096Z,102147.40
